createdAt,value
2023-05-16T00:02:00.369Z,99.90
2023-05-16T00:07:04.001Z,99.90
2023-05-16T00:12:09.757Z,99.90
2023-05-16T00:17:13.433Z,99.90
2023-05-16T00:22:17.172Z,99.90
2023-05-16T00:27:22.281Z,99.90
2023-05-16T00:32:25.968Z,99.90
2023-05-16T00:37:29.720Z,99.90
2023-05-16T00:42:34.471Z,99.90
2023-05-16T00:47:37.905Z,99.90
2023-05-16T00:52:42.857Z,99.90
2023-05-16T00:57:47.617Z,99.90
2023-05-16T01:02:53.614Z,99.90
2023-05-16T01:07:57.130Z,99.90
2023-05-16T01:13:11.781Z,99.90
2023-05-16T01:18:24.065Z,99.90
2023-05-16T01:23:41.002Z,99.90
2023-05-16T01:28:47.078Z,99.90
2023-05-16T01:33:51.046Z,99.90
2023-05-16T01:39:03.658Z,99.90
2023-05-16T01:44:18.186Z,99.90
2023-05-16T01:49:26.706Z,99.90
2023-05-16T01:54:33.317Z,99.90
2023-05-16T01:59:43.006Z,99.90
2023-05-16T02:04:47.103Z,99.90
2023-05-16T02:09:52.046Z,99.90
2023-05-16T02:14:56.705Z,99.90
2023-05-16T02:20:06.697Z,99.90
2023-05-16T02:25:11.200Z,99.90
2023-05-16T02:30:16.328Z,99.90
2023-05-16T02:35:20.399Z,99.90
2023-05-16T02:40:23.977Z,99.90
2023-05-16T02:45:28.931Z,99.90
2023-05-16T02:50:32.645Z,99.90
2023-05-16T02:55:36.652Z,99.90
2023-05-16T03:00:41.742Z,99.90
2023-05-16T03:05:46.332Z,99.90
2023-05-16T03:10:49.916Z,99.90
2023-05-16T03:15:54.746Z,99.90
2023-05-16T03:20:58.936Z,99.90
2023-05-16T03:26:02.261Z,99.90
2023-05-16T03:31:07.641Z,99.90
2023-05-16T03:36:11.613Z,99.90
2023-05-16T03:41:15.199Z,99.90
2023-05-16T03:46:20.597Z,99.90
2023-05-16T03:51:24.037Z,99.90
2023-05-16T03:56:27.576Z,99.90
2023-05-16T04:01:32.464Z,99.90
2023-05-16T04:06:36.055Z,99.90
2023-05-16T04:11:39.614Z,99.90
2023-05-16T04:16:44.680Z,99.90
2023-05-16T04:21:47.995Z,99.90
2023-05-16T04:26:51.433Z,99.90
2023-05-16T04:31:56.304Z,99.90
2023-05-16T04:36:59.985Z,99.90
2023-05-16T04:42:04.566Z,99.90
2023-05-16T04:47:09.492Z,99.90
2023-05-16T04:52:13.127Z,99.90
2023-05-16T04:57:16.564Z,99.90
2023-05-16T05:02:21.258Z,99.90
2023-05-16T05:07:28.113Z,99.90
2023-05-16T05:12:31.452Z,99.90
2023-05-16T05:17:37.900Z,99.90
2023-05-16T05:22:41.520Z,99.90
2023-05-16T05:27:44.909Z,99.90
2023-05-16T05:32:50.112Z,99.90
2023-05-16T05:37:53.503Z,99.90
2023-05-16T05:42:56.871Z,99.90
2023-05-16T05:48:01.655Z,99.90
2023-05-16T05:53:05.083Z,99.90
2023-05-16T05:58:09.298Z,99.90
2023-05-16T06:03:14.676Z,99.90
2023-05-16T06:08:20.028Z,99.90
2023-05-16T06:13:24.679Z,99.90
2023-05-16T06:18:29.992Z,99.90
2023-05-16T06:23:34.664Z,99.90
2023-05-16T06:28:38.519Z,99.90
2023-05-16T06:33:44.393Z,99.90
2023-05-16T06:38:48.206Z,99.90
2023-05-16T06:43:52.800Z,99.90
2023-05-16T06:48:58.106Z,99.90
2023-05-16T06:54:04.050Z,99.90
2023-05-16T06:59:08.525Z,99.90
2023-05-16T07:04:13.939Z,99.90
2023-05-16T07:09:21.608Z,99.90
2023-05-16T07:14:25.141Z,99.90
2023-05-16T07:19:29.927Z,99.90
2023-05-16T07:24:34.052Z,99.90
2023-05-16T07:29:38.381Z,99.90
2023-05-16T07:34:43.804Z,99.90
2023-05-16T07:39:47.395Z,99.90
2023-05-16T07:44:51.002Z,99.90
2023-05-16T07:49:55.945Z,99.90
2023-05-16T07:54:59.432Z,99.90
2023-05-16T08:00:05.695Z,99.90
2023-05-16T08:05:16.963Z,99.90
2023-05-16T08:10:23.519Z,99.90
2023-05-16T08:15:28.319Z,99.90
2023-05-16T08:20:33.500Z,99.90
2023-05-16T08:25:37.143Z,99.90
2023-05-16T08:30:42.781Z,99.90
2023-05-16T08:35:49.532Z,99.90
2023-05-16T08:40:53.610Z,99.90
2023-05-16T08:45:57.057Z,99.90
2023-05-16T08:51:06.502Z,99.90
2023-05-16T08:56:11.260Z,99.90
2023-05-16T09:01:15.920Z,99.90
2023-05-16T09:06:21.042Z,99.90
2023-05-16T09:11:24.572Z,99.90
2023-05-16T09:16:28.025Z,99.90
2023-05-16T09:21:34.394Z,99.90
2023-05-16T09:26:39.438Z,99.90
2023-05-16T09:31:43.340Z,99.90
2023-05-16T09:36:54.740Z,99.90
2023-05-16T09:41:59.296Z,99.90
2023-05-16T09:47:02.846Z,99.90
2023-05-16T09:52:08.068Z,99.90
2023-05-16T09:57:11.586Z,99.90
2023-05-16T10:02:15.987Z,99.90
2023-05-16T10:07:22.196Z,99.90
2023-05-16T10:12:30.109Z,99.90
2023-05-16T10:17:36.680Z,99.90
2023-05-16T10:22:44.368Z,99.90
2023-05-16T10:27:48.564Z,99.90
2023-05-16T10:32:52.800Z,99.90
2023-05-16T10:37:58.958Z,99.90
2023-05-16T10:43:03.981Z,99.90
2023-05-16T10:48:09.824Z,99.90
2023-05-16T10:53:18.756Z,99.90
2023-05-16T10:58:39.510Z,99.90
2023-05-16T11:04:08.544Z,99.90
2023-05-16T11:09:22.677Z,96.20
2023-05-16T11:14:29.017Z,95.90
2023-05-16T11:19:34.764Z,93.90
2023-05-16T11:24:49.582Z,94.90
2023-05-16T11:29:54.379Z,94.70
2023-05-16T11:34:58.733Z,94.10
2023-05-16T11:40:07.076Z,93.30
2023-05-16T11:45:12.394Z,95.70
2023-05-16T11:50:18.123Z,94.80
2023-05-16T11:55:40.178Z,92.80
2023-05-16T12:00:48.687Z,90.50
2023-05-16T12:05:54.304Z,77.90
2023-05-16T12:10:59.253Z,75.30
2023-05-16T12:16:02.769Z,67.80
2023-05-16T12:21:06.590Z,68.90
2023-05-16T12:26:11.506Z,72.60
2023-05-16T12:31:31.056Z,75.50
2023-05-16T12:36:36.826Z,77.50
2023-05-16T12:41:43.378Z,76.20
2023-05-16T12:46:50.047Z,74.40
2023-05-16T12:51:55.146Z,74.70
2023-05-16T12:57:00.424Z,72.10
2023-05-16T13:02:04.794Z,70.40
2023-05-16T13:07:08.286Z,73.50
2023-05-16T13:12:14.316Z,76.10
2023-05-16T13:17:17.802Z,75.20
2023-05-16T13:22:21.798Z,71.70
2023-05-16T13:27:27.034Z,66.20
2023-05-16T13:32:31.291Z,65.60
2023-05-16T13:37:34.745Z,65.00
2023-05-16T13:42:39.480Z,63.70
2023-05-16T13:47:42.941Z,63.60
2023-05-16T13:52:47.585Z,62.50
2023-05-16T13:57:52.333Z,65.10
2023-05-16T14:02:56.634Z,61.40
2023-05-16T14:08:00.176Z,60.50
2023-05-16T14:13:05.458Z,62.80
2023-05-16T14:18:09.371Z,57.30
2023-05-16T14:23:12.911Z,59.60
2023-05-16T14:28:17.784Z,60.50
2023-05-16T14:33:21.446Z,58.10
2023-05-16T14:38:25.322Z,60.00
2023-05-16T14:43:31.209Z,60.50
2023-05-16T14:48:34.720Z,61.00
2023-05-16T14:53:38.277Z,57.60
2023-05-16T14:58:43.228Z,59.40
2023-05-16T15:03:54.543Z,56.80
2023-05-16T15:09:00.117Z,59.20
2023-05-16T15:14:05.004Z,57.90
2023-05-16T15:19:08.827Z,55.90
2023-05-16T15:24:13.264Z,52.70
2023-05-16T15:29:20.085Z,50.80
2023-05-16T15:34:28.741Z,52.60
2023-05-16T15:39:32.127Z,50.30
2023-05-16T15:44:37.649Z,52.30
2023-05-16T15:49:41.582Z,52.20
2023-05-16T15:54:45.068Z,51.60
2023-05-16T15:59:49.902Z,52.10
2023-05-16T16:04:53.321Z,51.20
2023-05-16T16:09:58.373Z,52.30
2023-05-16T16:15:04.691Z,52.70
2023-05-16T16:20:09.591Z,53.80
2023-05-16T16:25:13.148Z,53.80
2023-05-16T16:30:18.097Z,53.50
2023-05-16T16:35:22.529Z,55.20
2023-05-16T16:40:26.151Z,56.00
2023-05-16T16:45:31.367Z,53.20
2023-05-16T16:50:35.509Z,51.90
2023-05-16T16:55:40.880Z,54.00
2023-05-16T17:00:46.207Z,53.20
2023-05-16T17:05:49.871Z,54.80
2023-05-16T17:10:53.416Z,56.20
2023-05-16T17:15:58.401Z,57.90
2023-05-16T17:21:01.769Z,58.10
2023-05-16T17:26:05.151Z,58.00
2023-05-16T17:31:09.880Z,58.20
2023-05-16T17:36:13.432Z,58.00
2023-05-16T17:41:17.171Z,59.10
2023-05-16T17:46:21.976Z,61.30
2023-05-16T17:51:26.083Z,64.40
2023-05-16T17:56:29.467Z,66.20
2023-05-16T18:01:34.745Z,66.20
2023-05-16T18:06:38.841Z,65.10
2023-05-16T18:11:42.626Z,68.80
2023-05-16T18:16:47.391Z,66.20
2023-05-16T18:21:50.756Z,67.60
2023-05-16T18:26:54.114Z,69.50
2023-05-16T18:32:00.587Z,69.00
2023-05-16T18:37:04.166Z,71.20
2023-05-16T18:42:07.934Z,72.70
2023-05-16T18:47:15.756Z,73.60
2023-05-16T18:52:19.509Z,74.10
2023-05-16T18:57:23.400Z,76.90
2023-05-16T19:02:41.064Z,76.40
2023-05-16T19:07:46.263Z,76.40
2023-05-16T19:12:50.081Z,76.90
2023-05-16T19:17:55.061Z,78.00
2023-05-16T19:22:58.585Z,79.10
2023-05-16T19:28:02.590Z,82.60
2023-05-16T19:33:07.568Z,84.20
2023-05-16T19:38:11.774Z,86.60
2023-05-16T19:43:15.552Z,85.00
2023-05-16T19:48:20.510Z,83.30
2023-05-16T19:53:24.069Z,83.70
2023-05-16T19:58:27.721Z,85.70
2023-05-16T20:03:33.489Z,84.30
2023-05-16T20:08:36.946Z,88.00
2023-05-16T20:13:40.405Z,86.40
2023-05-16T20:18:46.741Z,87.60
2023-05-16T20:23:51.569Z,88.20
2023-05-16T20:28:55.384Z,90.60
2023-05-16T20:34:00.426Z,91.10
2023-05-16T20:39:04.296Z,90.80
2023-05-16T20:44:07.756Z,91.10
2023-05-16T20:49:12.850Z,91.30
2023-05-16T20:54:16.190Z,92.60
2023-05-16T20:59:19.637Z,93.00
2023-05-16T21:04:25.661Z,94.10
2023-05-16T21:09:29.115Z,96.30
2023-05-16T21:14:33.117Z,97.90
2023-05-16T21:19:38.799Z,99.60
2023-05-16T21:24:42.249Z,99.90
2023-05-16T21:29:46.185Z,99.90
2023-05-16T21:34:51.107Z,99.90
2023-05-16T21:39:54.608Z,99.90
2023-05-16T21:44:58.028Z,99.90
2023-05-16T21:50:03.143Z,99.90
2023-05-16T21:55:08.061Z,99.90
2023-05-16T22:00:13.003Z,99.90
2023-05-16T22:05:19.768Z,99.90
2023-05-16T22:10:23.260Z,99.90
2023-05-16T22:15:26.989Z,99.90
2023-05-16T22:20:32.256Z,99.90
2023-05-16T22:25:35.887Z,99.90
2023-05-16T22:30:39.324Z,99.90
2023-05-16T22:35:44.733Z,99.90
2023-05-16T22:40:48.138Z,99.90
2023-05-16T22:45:51.885Z,99.90
2023-05-16T22:50:57.600Z,99.90
2023-05-16T22:56:01.695Z,99.90
2023-05-16T23:01:05.312Z,99.90
2023-05-16T23:06:10.110Z,99.90
2023-05-16T23:11:14.348Z,99.90
2023-05-16T23:16:17.754Z,99.90
2023-05-16T23:21:22.554Z,99.90
2023-05-16T23:26:25.994Z,99.90
2023-05-16T23:31:30.661Z,99.90
2023-05-16T23:36:35.705Z,99.90
2023-05-16T23:41:39.713Z,99.90
2023-05-16T23:46:43.096Z,99.90
2023-05-16T23:51:57.570Z,99.90
2023-05-16T23:57:01.739Z,99.90
